createdAt,value
2022-08-11T00:02:36.054Z,2.22
2022-08-11T00:05:08.267Z,2.75
2022-08-11T00:07:43.285Z,2.50
2022-08-11T00:10:13.433Z,2.60
2022-08-11T00:12:42.594Z,2.47
2022-08-11T00:15:12.304Z,2.60
2022-08-11T00:17:40.718Z,2.75
2022-08-11T00:20:16.550Z,2.58
2022-08-11T00:22:48.154Z,2.78
2022-08-11T00:25:18.733Z,2.63
2022-08-11T00:27:48.985Z,2.65
2022-08-11T00:30:17.492Z,2.47
2022-08-11T00:32:47.432Z,2.67
2022-08-11T00:35:56.230Z,2.45
2022-08-11T00:38:08.393Z,2.45
2022-08-11T00:40:43.031Z,2.78
2022-08-11T00:43:21.277Z,2.53
2022-08-11T00:46:11.668Z,2.60
2022-08-11T00:48:51.245Z,2.92
2022-08-11T00:52:02.218Z,2.97
2022-08-11T00:54:45.015Z,2.80
2022-08-11T00:57:38.257Z,2.80
2022-08-11T01:00:15.860Z,3.28
2022-08-11T01:03:03.787Z,2.95
2022-08-11T01:06:00.973Z,2.70
2022-08-11T01:09:10.060Z,3.22
2022-08-11T01:12:15.665Z,2.95
2022-08-11T01:15:28.420Z,2.70
2022-08-11T01:18:35.564Z,3.45
2022-08-11T01:21:59.416Z,3.10
2022-08-11T01:25:00.964Z,3.72
2022-08-11T01:28:04.329Z,3.60
2022-08-11T01:31:17.608Z,3.20
2022-08-11T01:34:24.946Z,3.28
2022-08-11T01:37:25.254Z,3.17
2022-08-11T01:40:23.262Z,3.25
2022-08-11T01:43:37.759Z,2.90
2022-08-11T01:46:13.776Z,2.90
2022-08-11T01:48:45.182Z,3.30
2022-08-11T01:51:30.287Z,3.30
2022-08-11T01:54:05.529Z,3.38
2022-08-11T01:57:00.162Z,2.50
2022-08-11T01:59:35.211Z,3.08
2022-08-11T02:02:45.851Z,3.42
2022-08-11T02:05:24.392Z,2.90
2022-08-11T02:08:00.277Z,3.05
2022-08-11T02:10:54.355Z,3.33
2022-08-11T02:13:38.078Z,3.30
2022-08-11T02:16:17.894Z,3.22
2022-08-11T02:19:11.564Z,2.92
2022-08-11T02:22:06.187Z,3.00
2022-08-11T02:24:42.398Z,3.22
2022-08-11T02:27:19.862Z,3.10
2022-08-11T02:29:56.919Z,3.15
2022-08-11T02:32:50.550Z,3.35
2022-08-11T02:35:27.662Z,3.30
2022-08-11T02:38:10.212Z,3.40
2022-08-11T02:40:48.594Z,3.30
2022-08-11T02:43:41.601Z,3.50
2022-08-11T02:46:24.207Z,3.65
2022-08-11T02:49:17.445Z,3.60
2022-08-11T02:52:06.221Z,3.50
2022-08-11T02:54:43.291Z,3.38
2022-08-11T02:57:20.238Z,3.38
2022-08-11T02:59:55.078Z,3.90
2022-08-11T03:02:34.951Z,3.45
2022-08-11T03:05:17.645Z,3.28
2022-08-11T03:08:12.641Z,3.20
2022-08-11T03:11:10.513Z,3.55
2022-08-11T03:14:00.988Z,3.45
2022-08-11T03:16:46.808Z,3.50
2022-08-11T03:19:23.072Z,3.60
2022-08-11T03:22:02.784Z,4.13
2022-08-11T03:24:43.582Z,3.28
2022-08-11T03:27:24.326Z,3.67
2022-08-11T03:30:06.584Z,3.38
2022-08-11T03:32:43.340Z,3.28
2022-08-11T03:35:21.560Z,3.83
2022-08-11T03:37:57.692Z,3.55
2022-08-11T03:41:54.726Z,3.20
2022-08-11T03:44:07.886Z,3.58
2022-08-11T03:46:57.493Z,3.33
2022-08-11T03:49:39.209Z,3.60
2022-08-11T03:52:17.645Z,4.03
2022-08-11T03:55:08.340Z,3.50
2022-08-11T03:58:19.558Z,3.60
2022-08-11T04:01:14.587Z,3.20
2022-08-11T04:04:18.666Z,3.58
2022-08-11T04:07:17.438Z,3.60
2022-08-11T04:10:18.077Z,3.47
2022-08-11T04:13:23.080Z,3.70
2022-08-11T04:16:24.313Z,3.83
2022-08-11T04:19:13.277Z,3.88
2022-08-11T04:22:09.404Z,3.35
2022-08-11T04:25:08.432Z,3.90
2022-08-11T04:28:28.448Z,3.70
2022-08-11T04:31:50.518Z,3.63
2022-08-11T04:34:41.938Z,3.90
2022-08-11T04:37:37.683Z,3.63
2022-08-11T04:40:49.968Z,3.75
2022-08-11T04:44:02.497Z,4.13
2022-08-11T04:47:00.412Z,3.90
2022-08-11T04:50:15.307Z,3.95
2022-08-11T04:53:32.079Z,4.03
2022-08-11T04:56:35.916Z,3.97
2022-08-11T04:59:49.877Z,4.03
2022-08-11T05:02:54.850Z,4.10
2022-08-11T05:05:33.115Z,4.38
2022-08-11T05:08:33.591Z,4.00
2022-08-11T05:11:21.836Z,3.95
2022-08-11T05:14:11.304Z,4.30
2022-08-11T05:17:07.027Z,4.00
2022-08-11T05:19:52.661Z,4.60
2022-08-11T05:22:39.563Z,4.57
2022-08-11T05:26:44.111Z,4.57
2022-08-11T05:28:38.472Z,4.90
2022-08-11T05:31:30.614Z,5.20
2022-08-11T05:34:19.724Z,5.10
2022-08-11T05:36:51.657Z,4.63
2022-08-11T05:39:42.247Z,4.63
2022-08-11T05:42:29.996Z,4.85
2022-08-11T05:45:22.807Z,4.55
2022-08-11T05:48:10.314Z,4.95
2022-08-11T05:50:56.425Z,4.82
2022-08-11T05:53:46.403Z,4.53
2022-08-11T05:56:19.337Z,4.30
2022-08-11T05:58:50.665Z,4.07
2022-08-11T06:01:24.656Z,4.18
2022-08-11T06:04:15.755Z,4.30
2022-08-11T06:06:52.363Z,4.45
2022-08-11T06:09:26.133Z,4.15
2022-08-11T06:11:57.102Z,4.57
2022-08-11T06:14:25.975Z,4.82
2022-08-11T06:16:59.130Z,3.95
2022-08-11T06:19:35.538Z,4.65
2022-08-11T06:22:05.829Z,3.95
2022-08-11T06:24:36.020Z,3.72
2022-08-11T06:27:14.264Z,3.65
2022-08-11T06:29:54.867Z,3.85
2022-08-11T06:32:26.689Z,3.20
2022-08-11T06:35:09.825Z,3.45
2022-08-11T06:37:46.739Z,3.38
2022-08-11T06:40:27.312Z,3.80
2022-08-11T06:43:02.416Z,3.78
2022-08-11T06:45:36.285Z,3.53
2022-08-11T06:48:06.579Z,4.10
2022-08-11T06:50:53.698Z,3.33
2022-08-11T06:53:22.461Z,4.13
2022-08-11T06:56:09.043Z,3.35
2022-08-11T06:59:00.286Z,3.42
2022-08-11T07:01:46.703Z,4.03
2022-08-11T07:04:22.510Z,3.47
2022-08-11T07:07:26.745Z,4.05
2022-08-11T07:10:31.797Z,3.92
2022-08-11T07:13:38.193Z,3.42
2022-08-11T07:16:10.556Z,4.03
2022-08-11T07:19:00.104Z,4.55
2022-08-11T07:22:01.230Z,3.45
2022-08-11T07:24:59.372Z,3.55
2022-08-11T07:27:56.624Z,3.22
2022-08-11T07:30:27.215Z,3.53
2022-08-11T07:33:00.696Z,3.70
2022-08-11T07:35:33.285Z,3.75
2022-08-11T07:38:06.972Z,3.47
2022-08-11T07:40:38.392Z,3.47
2022-08-11T07:43:07.607Z,3.22
2022-08-11T07:45:53.376Z,3.30
2022-08-11T07:48:39.086Z,3.10
2022-08-11T07:51:25.414Z,3.65
2022-08-11T07:53:58.492Z,4.10
2022-08-11T07:56:54.830Z,3.50
2022-08-11T07:59:57.571Z,3.47
2022-08-11T08:02:58.399Z,3.30
2022-08-11T08:05:44.476Z,3.47
2022-08-11T08:08:30.376Z,4.20
2022-08-11T08:11:16.107Z,3.92
2022-08-11T08:14:03.111Z,3.60
2022-08-11T08:16:49.676Z,3.45
2022-08-11T08:19:20.291Z,3.40
2022-08-11T08:21:48.980Z,2.63
2022-08-11T08:24:17.606Z,3.22
2022-08-11T08:27:01.528Z,2.80
2022-08-11T08:29:52.183Z,3.30
2022-08-11T08:32:21.814Z,3.28
2022-08-11T08:34:51.488Z,3.75
2022-08-11T08:37:45.658Z,2.83
2022-08-11T08:40:10.411Z,3.10
2022-08-11T08:42:45.189Z,3.20
2022-08-11T08:45:18.372Z,3.00
2022-08-11T08:47:53.024Z,2.70
2022-08-11T08:50:27.832Z,2.85
2022-08-11T08:52:59.338Z,2.97
2022-08-11T08:55:29.892Z,2.63
2022-08-11T08:58:00.630Z,2.70
2022-08-11T09:00:40.891Z,2.35
2022-08-11T09:03:38.273Z,2.72
2022-08-11T09:05:58.477Z,2.70
2022-08-11T09:08:27.504Z,3.25
2022-08-11T09:11:13.747Z,2.80
2022-08-11T09:13:44.663Z,3.33
2022-08-11T09:16:14.869Z,2.67
2022-08-11T09:18:45.028Z,2.60
2022-08-11T09:21:15.486Z,2.45
2022-08-11T09:24:25.994Z,2.33
2022-08-11T09:27:02.873Z,2.33
2022-08-11T09:29:32.763Z,2.65
2022-08-11T09:32:02.446Z,2.45
2022-08-11T09:34:30.348Z,2.83
2022-08-11T09:37:28.257Z,2.50
2022-08-11T09:40:27.287Z,2.88
2022-08-11T09:43:13.595Z,2.80
2022-08-11T09:45:41.760Z,2.75
2022-08-11T09:48:12.998Z,2.53
2022-08-11T09:50:41.260Z,2.67
2022-08-11T09:53:37.187Z,3.03
2022-08-11T09:56:22.641Z,2.60
2022-08-11T09:58:50.208Z,2.47
2022-08-11T10:01:27.441Z,2.45
2022-08-11T10:04:01.519Z,2.60
2022-08-11T10:06:53.919Z,2.63
2022-08-11T10:09:25.111Z,2.25
2022-08-11T10:11:57.880Z,2.63
2022-08-11T10:14:45.085Z,2.72
2022-08-11T10:17:15.687Z,3.08
2022-08-11T10:19:48.874Z,3.10
2022-08-11T10:22:52.620Z,2.40
2022-08-11T10:25:39.664Z,3.00
2022-08-11T10:28:28.561Z,2.47
2022-08-11T10:31:31.298Z,2.22
2022-08-11T10:34:16.698Z,2.65
2022-08-11T10:36:49.193Z,2.42
2022-08-11T10:39:20.132Z,2.30
2022-08-11T10:42:12.289Z,2.20
2022-08-11T10:44:48.746Z,2.25
2022-08-11T10:47:34.185Z,2.30
2022-08-11T10:50:20.933Z,2.53
2022-08-11T10:53:08.871Z,2.70
2022-08-11T10:55:55.159Z,2.30
2022-08-11T10:58:44.889Z,2.55
2022-08-11T11:01:14.553Z,2.28
2022-08-11T11:03:43.607Z,2.50
2022-08-11T11:06:29.476Z,2.85
2022-08-11T11:09:04.955Z,2.00
2022-08-11T11:11:55.665Z,2.30
2022-08-11T11:14:52.703Z,2.53
2022-08-11T11:17:48.859Z,2.90
2022-08-11T11:20:36.613Z,2.80
2022-08-11T11:23:11.219Z,2.15
2022-08-11T11:26:10.171Z,2.20
2022-08-11T11:29:04.265Z,2.42
2022-08-11T11:31:52.383Z,2.40
2022-08-11T11:34:37.938Z,2.20
2022-08-11T11:37:22.013Z,2.40
2022-08-11T11:39:50.345Z,2.60
2022-08-11T11:42:21.324Z,2.40
2022-08-11T11:44:51.364Z,2.30
2022-08-11T11:47:22.908Z,2.22
2022-08-11T11:49:51.838Z,2.15
2022-08-11T11:52:22.009Z,2.65
2022-08-11T11:54:53.460Z,2.40
2022-08-11T11:57:41.744Z,2.25
2022-08-11T12:00:44.423Z,2.50
2022-08-11T12:03:13.243Z,2.30
2022-08-11T12:05:44.777Z,2.70
2022-08-11T12:08:16.599Z,2.38
2022-08-11T12:10:46.825Z,2.33
2022-08-11T12:13:34.865Z,2.25
2022-08-11T12:16:34.221Z,2.15
2022-08-11T12:18:55.340Z,2.38
2022-08-11T12:21:24.794Z,2.55
2022-08-11T12:24:10.660Z,2.38
2022-08-11T12:27:16.362Z,2.83
2022-08-11T12:29:54.392Z,2.28
2022-08-11T12:32:25.329Z,2.40
2022-08-11T12:34:53.771Z,2.22
2022-08-11T12:37:27.247Z,2.10
2022-08-11T12:40:42.886Z,2.45
2022-08-11T12:43:37.783Z,2.53
2022-08-11T12:46:11.065Z,2.25
2022-08-11T12:49:02.149Z,2.45
2022-08-11T12:52:12.226Z,2.50
2022-08-11T12:54:47.979Z,2.70
2022-08-11T12:57:37.226Z,2.40
2022-08-11T13:00:25.259Z,2.22
2022-08-11T13:03:14.480Z,2.63
2022-08-11T13:05:44.989Z,2.20
2022-08-11T13:08:15.033Z,2.50
2022-08-11T13:11:01.939Z,2.45
2022-08-11T13:13:54.215Z,2.50
2022-08-11T13:16:20.676Z,1.92
2022-08-11T13:18:51.228Z,2.58
2022-08-11T13:21:23.025Z,2.63
2022-08-11T13:24:01.353Z,2.40
2022-08-11T13:26:46.841Z,2.22
2022-08-11T13:29:19.908Z,2.55
2022-08-11T13:31:49.137Z,2.50
2022-08-11T13:34:19.937Z,2.40
2022-08-11T13:36:50.062Z,2.30
2022-08-11T13:39:18.754Z,2.17
2022-08-11T13:41:48.505Z,2.60
2022-08-11T13:44:24.774Z,2.70
2022-08-11T13:46:55.297Z,2.30
2022-08-11T13:49:25.550Z,2.15
2022-08-11T13:51:56.257Z,2.20
2022-08-11T13:54:27.224Z,2.70
2022-08-11T13:56:57.856Z,4.55
2022-08-11T13:59:29.521Z,2.80
2022-08-11T14:02:22.977Z,2.40
2022-08-11T14:04:56.434Z,2.40
2022-08-11T14:07:26.842Z,2.20
2022-08-11T14:09:58.599Z,2.55
2022-08-11T14:12:46.233Z,2.38
2022-08-11T14:15:19.793Z,2.50
2022-08-11T14:17:52.450Z,2.50
2022-08-11T14:20:39.723Z,2.38
2022-08-11T14:23:11.406Z,2.50
2022-08-11T14:26:02.963Z,2.70
2022-08-11T14:28:37.399Z,2.67
2022-08-11T14:31:08.531Z,2.05
2022-08-11T14:33:59.528Z,2.45
2022-08-11T14:36:29.368Z,2.40
2022-08-11T14:38:57.937Z,2.60
2022-08-11T14:42:11.636Z,2.88
2022-08-11T14:44:54.434Z,2.70
2022-08-11T14:47:25.488Z,2.35
2022-08-11T14:50:09.392Z,2.45
2022-08-11T14:52:47.229Z,2.25
2022-08-11T14:55:33.491Z,2.50
2022-08-11T14:58:03.307Z,2.47
2022-08-11T15:00:34.225Z,2.15
2022-08-11T15:03:13.146Z,2.53
2022-08-11T15:05:56.337Z,2.40
2022-08-11T15:08:53.191Z,2.42
2022-08-11T15:11:41.048Z,2.35
2022-08-11T15:14:10.894Z,2.60
2022-08-11T15:16:59.600Z,2.33
2022-08-11T15:19:40.203Z,2.35
2022-08-11T15:22:28.384Z,2.60
2022-08-11T15:24:59.731Z,2.53
2022-08-11T15:27:49.737Z,2.70
2022-08-11T15:30:35.750Z,2.60
2022-08-11T15:33:38.885Z,2.20
2022-08-11T15:36:28.464Z,2.30
2022-08-11T15:39:02.004Z,2.30
2022-08-11T15:41:58.557Z,2.53
2022-08-11T15:45:02.237Z,2.20
2022-08-11T15:47:38.725Z,2.47
2022-08-11T15:50:15.208Z,2.50
2022-08-11T15:52:49.620Z,2.83
2022-08-11T15:55:18.353Z,2.65
2022-08-11T15:58:07.865Z,2.60
2022-08-11T16:00:58.916Z,2.67
2022-08-11T16:04:07.947Z,2.60
2022-08-11T16:06:47.745Z,2.67
2022-08-11T16:09:23.522Z,2.47
2022-08-11T16:11:53.679Z,2.55
2022-08-11T16:14:47.103Z,2.85
2022-08-11T16:17:19.700Z,2.25
2022-08-11T16:19:50.988Z,2.47
2022-08-11T16:22:34.939Z,2.83
2022-08-11T16:27:04.427Z,2.55
2022-08-11T16:27:57.487Z,2.70
2022-08-11T16:30:28.123Z,2.70
2022-08-11T16:32:57.679Z,3.53
2022-08-11T16:35:43.873Z,2.50
2022-08-11T16:38:31.498Z,2.45
2022-08-11T16:41:01.751Z,2.50
2022-08-11T16:43:50.487Z,2.60
2022-08-11T16:46:39.059Z,3.10
2022-08-11T16:49:10.040Z,2.63
2022-08-11T16:51:38.189Z,2.75
2022-08-11T16:54:06.560Z,2.60
2022-08-11T16:56:38.720Z,2.50
2022-08-11T16:59:16.199Z,2.80
2022-08-11T17:01:48.990Z,2.55
2022-08-11T17:04:48.693Z,2.75
2022-08-11T17:07:42.264Z,2.60
2022-08-11T17:10:51.752Z,2.40
2022-08-11T17:13:29.133Z,2.40
2022-08-11T17:16:12.605Z,2.70
2022-08-11T17:18:55.452Z,2.47
2022-08-11T17:21:26.917Z,2.70
2022-08-11T17:23:57.020Z,2.30
2022-08-11T17:26:51.493Z,2.80
2022-08-11T17:29:22.999Z,2.47
2022-08-11T17:32:09.567Z,2.80
2022-08-11T17:34:58.091Z,2.50
2022-08-11T17:37:26.836Z,2.70
2022-08-11T17:39:56.922Z,2.60
2022-08-11T17:42:45.982Z,2.97
2022-08-11T17:45:32.002Z,2.70
2022-08-11T17:48:18.832Z,3.00
2022-08-11T17:50:49.580Z,2.70
2022-08-11T17:53:36.273Z,2.60
2022-08-11T17:56:22.598Z,2.78
2022-08-11T17:59:10.857Z,2.50
2022-08-11T18:01:40.966Z,2.78
2022-08-11T18:04:10.868Z,2.78
2022-08-11T18:06:42.301Z,3.25
2022-08-11T18:09:32.999Z,2.17
2022-08-11T18:12:20.665Z,2.90
2022-08-11T18:15:08.793Z,2.78
2022-08-11T18:17:55.692Z,2.80
2022-08-11T18:20:42.379Z,3.20
2022-08-11T18:23:40.494Z,2.95
2022-08-11T18:26:36.019Z,3.17
2022-08-11T18:29:22.839Z,3.08
2022-08-11T18:32:12.677Z,3.08
2022-08-11T18:35:10.979Z,3.55
2022-08-11T18:38:03.627Z,3.00
2022-08-11T18:40:51.812Z,2.90
2022-08-11T18:43:43.034Z,3.05
2022-08-11T18:46:31.396Z,3.13
2022-08-11T18:49:22.036Z,2.80
2022-08-11T18:52:11.167Z,3.20
2022-08-11T18:54:59.832Z,2.35
2022-08-11T18:57:49.944Z,2.95
2022-08-11T19:00:40.395Z,2.95
2022-08-11T19:03:26.761Z,2.80
2022-08-11T19:06:38.141Z,3.72
2022-08-11T19:09:23.579Z,3.35
2022-08-11T19:12:09.471Z,2.95
2022-08-11T19:14:56.932Z,3.05
2022-08-11T19:17:45.938Z,3.10
2022-08-11T19:20:34.803Z,3.17
2022-08-11T19:23:21.295Z,3.30
2022-08-11T19:26:08.683Z,3.00
2022-08-11T19:28:57.627Z,2.92
2022-08-11T19:31:45.452Z,3.33
2022-08-11T19:34:34.527Z,3.33
2022-08-11T19:37:24.349Z,3.13
2022-08-11T19:40:11.495Z,3.42
2022-08-11T19:42:59.192Z,3.38
2022-08-11T19:45:44.834Z,3.40
2022-08-11T19:48:40.621Z,3.20
2022-08-11T19:51:27.769Z,3.38
2022-08-11T19:54:14.275Z,3.35
2022-08-11T19:57:02.750Z,3.42
2022-08-11T19:59:49.484Z,3.95
2022-08-11T20:02:35.338Z,3.30
2022-08-11T20:05:23.444Z,4.00
2022-08-11T20:08:10.125Z,3.17
2022-08-11T20:10:56.471Z,3.10
2022-08-11T20:13:45.754Z,3.33
2022-08-11T20:16:34.699Z,3.70
2022-08-11T20:19:25.940Z,3.40
2022-08-11T20:22:29.227Z,3.70
2022-08-11T20:25:14.853Z,3.72
2022-08-11T20:28:02.756Z,3.95
2022-08-11T20:30:51.893Z,3.67
2022-08-11T20:33:40.603Z,4.07
2022-08-11T20:36:27.211Z,3.78
2022-08-11T20:39:15.455Z,3.72
2022-08-11T20:42:01.518Z,3.63
2022-08-11T20:44:48.702Z,3.58
2022-08-11T20:47:59.300Z,3.30
2022-08-11T20:50:41.971Z,3.78
2022-08-11T20:53:36.757Z,3.45
2022-08-11T20:56:30.122Z,3.60
2022-08-11T21:02:24.445Z,3.75
2022-08-11T21:05:13.069Z,3.60
2022-08-11T21:08:07.720Z,4.22
2022-08-11T21:10:57.223Z,4.03
2022-08-11T21:13:48.507Z,3.70
2022-08-11T21:16:47.363Z,3.53
2022-08-11T21:20:06.918Z,3.40
2022-08-11T21:22:59.484Z,3.90
2022-08-11T21:25:55.577Z,3.38
2022-08-11T21:28:47.952Z,3.53
2022-08-11T21:31:34.100Z,3.42
2022-08-11T21:34:21.711Z,3.55
2022-08-11T21:37:09.191Z,3.33
2022-08-11T21:39:56.357Z,3.45
2022-08-11T21:42:44.045Z,3.40
2022-08-11T21:45:32.820Z,3.35
2022-08-11T21:48:19.860Z,4.13
2022-08-11T21:51:05.055Z,3.20
2022-08-11T21:53:51.861Z,3.33
2022-08-11T21:56:38.244Z,3.78
2022-08-11T21:59:25.190Z,3.58
2022-08-11T22:02:13.190Z,3.35
2022-08-11T22:04:59.084Z,3.67
2022-08-11T22:07:44.805Z,3.60
2022-08-11T22:10:42.264Z,3.45
2022-08-11T22:13:29.851Z,3.13
2022-08-11T22:16:16.199Z,3.40
2022-08-11T22:19:04.853Z,3.17
2022-08-11T22:22:01.673Z,3.40
2022-08-11T22:24:50.857Z,3.10
2022-08-11T22:27:36.060Z,3.03
2022-08-11T22:30:21.887Z,3.03
2022-08-11T22:33:07.562Z,3.58
2022-08-11T22:35:54.678Z,3.33
2022-08-11T22:38:40.772Z,3.50
2022-08-11T22:41:25.954Z,3.35
2022-08-11T22:44:11.083Z,3.78
2022-08-11T22:46:56.811Z,3.13
2022-08-11T22:49:57.268Z,3.40
2022-08-11T22:52:47.803Z,3.40
2022-08-11T22:55:34.336Z,3.58
2022-08-11T22:58:21.077Z,3.70
2022-08-11T23:01:07.884Z,3.35
2022-08-11T23:03:53.976Z,3.00
2022-08-11T23:06:40.234Z,3.40
2022-08-11T23:09:27.694Z,3.10
2022-08-11T23:12:13.720Z,3.80
2022-08-11T23:15:00.125Z,3.30
2022-08-11T23:17:46.334Z,3.58
2022-08-11T23:20:36.975Z,3.10
2022-08-11T23:23:25.849Z,3.25
2022-08-11T23:26:14.420Z,3.50
2022-08-11T23:29:05.034Z,3.55
2022-08-11T23:31:52.715Z,3.17
2022-08-11T23:35:37.232Z,3.45
2022-08-11T23:37:46.796Z,3.53
2022-08-11T23:40:32.427Z,3.47
2022-08-11T23:43:19.844Z,3.33
2022-08-11T23:46:04.992Z,3.38
2022-08-11T23:48:51.534Z,3.40
2022-08-11T23:51:41.346Z,3.35
2022-08-11T23:54:27.739Z,3.33
2022-08-11T23:57:13.458Z,2.97
